sensor_id;sensor_type;location;lat;lon;timestamp;temperature;humidity
41720;DHT22;27405;53.316;-6.294;2022-10-16T00:00:34;8.70;99.90
41720;DHT22;27405;53.316;-6.294;2022-10-16T00:03:01;8.70;99.90
41720;DHT22;27405;53.316;-6.294;2022-10-16T00:05:27;8.70;99.90
41720;DHT22;27405;53.316;-6.294;2022-10-16T00:07:53;8.70;99.90
41720;DHT22;27405;53.316;-6.294;2022-10-16T00:10:19;8.70;99.90
41720;DHT22;27405;53.316;-6.294;2022-10-16T00:12:44;8.60;99.90
41720;DHT22;27405;53.316;-6.294;2022-10-16T00:15:10;8.60;99.90
41720;DHT22;27405;53.316;-6.294;2022-10-16T00:17:35;8.60;99.90
41720;DHT22;27405;53.316;-6.294;2022-10-16T00:20:02;8.60;99.90
41720;DHT22;27405;53.316;-6.294;2022-10-16T00:22:28;8.60;99.90
41720;DHT22;27405;53.316;-6.294;2022-10-16T00:24:54;8.60;99.90
41720;DHT22;27405;53.316;-6.294;2022-10-16T00:27:20;8.60;99.90
41720;DHT22;27405;53.316;-6.294;2022-10-16T00:29:49;8.60;99.90
41720;DHT22;27405;53.316;-6.294;2022-10-16T00:32:15;8.60;99.90
41720;DHT22;27405;53.316;-6.294;2022-10-16T00:34:41;8.50;99.90
41720;DHT22;27405;53.316;-6.294;2022-10-16T00:37:07;8.50;99.90
41720;DHT22;27405;53.316;-6.294;2022-10-16T00:39:32;8.50;99.90
41720;DHT22;27405;53.316;-6.294;2022-10-16T00:41:58;8.50;99.90
41720;DHT22;27405;53.316;-6.294;2022-10-16T00:50:10;8.50;99.90
41720;DHT22;27405;53.316;-6.294;2022-10-16T00:52:39;8.50;99.90
41720;DHT22;27405;53.316;-6.294;2022-10-16T00:55:09;8.50;99.90
41720;DHT22;27405;53.316;-6.294;2022-10-16T00:57:35;8.40;99.90
41720;DHT22;27405;53.316;-6.294;2022-10-16T01:00:04;8.50;99.90
41720;DHT22;27405;53.316;-6.294;2022-10-16T01:02:30;8.50;99.90
41720;DHT22;27405;53.316;-6.294;2022-10-16T01:04:56;8.50;99.90
41720;DHT22;27405;53.316;-6.294;2022-10-16T01:07:36;8.50;99.90
41720;DHT22;27405;53.316;-6.294;2022-10-16T01:13:01;8.50;99.90
41720;DHT22;27405;53.316;-6.294;2022-10-16T01:15:36;8.50;99.90
41720;DHT22;27405;53.316;-6.294;2022-10-16T01:18:32;8.50;99.90
41720;DHT22;27405;53.316;-6.294;2022-10-16T01:21:05;8.40;99.90
41720;DHT22;27405;53.316;-6.294;2022-10-16T01:37:55;8.50;99.90
41720;DHT22;27405;53.316;-6.294;2022-10-16T01:40:26;8.50;99.90
41720;DHT22;27405;53.316;-6.294;2022-10-16T01:42:57;8.50;99.90
41720;DHT22;27405;53.316;-6.294;2022-10-16T01:45:24;8.50;99.90
41720;DHT22;27405;53.316;-6.294;2022-10-16T01:47:52;8.50;99.90
41720;DHT22;27405;53.316;-6.294;2022-10-16T01:50:19;8.40;99.90
41720;DHT22;27405;53.316;-6.294;2022-10-16T01:52:48;8.40;99.90
41720;DHT22;27405;53.316;-6.294;2022-10-16T01:55:25;8.40;99.90
41720;DHT22;27405;53.316;-6.294;2022-10-16T01:57:53;8.40;99.90
41720;DHT22;27405;53.316;-6.294;2022-10-16T02:00:21;8.40;99.90
41720;DHT22;27405;53.316;-6.294;2022-10-16T02:02:50;8.40;99.90
41720;DHT22;27405;53.316;-6.294;2022-10-16T02:07:42;8.30;99.90
41720;DHT22;27405;53.316;-6.294;2022-10-16T02:10:08;8.30;99.90
41720;DHT22;27405;53.316;-6.294;2022-10-16T02:12:38;8.30;99.90
41720;DHT22;27405;53.316;-6.294;2022-10-16T02:15:06;8.30;99.90
41720;DHT22;27405;53.316;-6.294;2022-10-16T02:17:32;8.30;99.90
41720;DHT22;27405;53.316;-6.294;2022-10-16T02:19:59;8.30;99.90
41720;DHT22;27405;53.316;-6.294;2022-10-16T02:22:42;8.30;99.90
41720;DHT22;27405;53.316;-6.294;2022-10-16T02:25:40;8.20;99.90
41720;DHT22;27405;53.316;-6.294;2022-10-16T02:28:16;8.20;99.90
41720;DHT22;27405;53.316;-6.294;2022-10-16T02:30:46;8.20;99.90
41720;DHT22;27405;53.316;-6.294;2022-10-16T02:33:15;8.20;99.90
41720;DHT22;27405;53.316;-6.294;2022-10-16T02:35:43;8.20;99.90
41720;DHT22;27405;53.316;-6.294;2022-10-16T02:38:10;8.20;99.90
41720;DHT22;27405;53.316;-6.294;2022-10-16T02:40:37;8.20;99.90
41720;DHT22;27405;53.316;-6.294;2022-10-16T02:43:04;8.20;99.90
41720;DHT22;27405;53.316;-6.294;2022-10-16T02:45:30;8.20;99.90
41720;DHT22;27405;53.316;-6.294;2022-10-16T02:47:56;8.20;99.90
41720;DHT22;27405;53.316;-6.294;2022-10-16T02:50:22;8.20;99.90
41720;DHT22;27405;53.316;-6.294;2022-10-16T02:52:48;8.20;99.90
41720;DHT22;27405;53.316;-6.294;2022-10-16T02:55:14;8.20;99.90
41720;DHT22;27405;53.316;-6.294;2022-10-16T02:57:39;8.10;99.90
41720;DHT22;27405;53.316;-6.294;2022-10-16T03:00:09;8.10;99.90
41720;DHT22;27405;53.316;-6.294;2022-10-16T03:02:36;8.10;99.90
41720;DHT22;27405;53.316;-6.294;2022-10-16T03:05:02;8.20;99.90
41720;DHT22;27405;53.316;-6.294;2022-10-16T03:07:28;8.20;99.90
41720;DHT22;27405;53.316;-6.294;2022-10-16T03:09:54;8.20;99.90
41720;DHT22;27405;53.316;-6.294;2022-10-16T03:12:21;8.20;99.90
41720;DHT22;27405;53.316;-6.294;2022-10-16T03:14:47;8.20;99.90
41720;DHT22;27405;53.316;-6.294;2022-10-16T03:17:12;8.20;99.90
41720;DHT22;27405;53.316;-6.294;2022-10-16T03:19:38;8.30;99.90
41720;DHT22;27405;53.316;-6.294;2022-10-16T03:22:04;8.20;99.90
41720;DHT22;27405;53.316;-6.294;2022-10-16T03:24:30;8.20;99.90
41720;DHT22;27405;53.316;-6.294;2022-10-16T03:26:55;8.10;99.90
41720;DHT22;27405;53.316;-6.294;2022-10-16T03:29:21;8.10;99.90
41720;DHT22;27405;53.316;-6.294;2022-10-16T03:31:47;8.00;99.90
41720;DHT22;27405;53.316;-6.294;2022-10-16T03:34:14;8.10;99.90
41720;DHT22;27405;53.316;-6.294;2022-10-16T03:36:40;8.00;99.90
41720;DHT22;27405;53.316;-6.294;2022-10-16T03:39:06;7.90;99.90
41720;DHT22;27405;53.316;-6.294;2022-10-16T03:41:31;8.00;99.90
41720;DHT22;27405;53.316;-6.294;2022-10-16T03:43:57;8.00;99.90
41720;DHT22;27405;53.316;-6.294;2022-10-16T03:46:23;8.00;99.90
41720;DHT22;27405;53.316;-6.294;2022-10-16T03:48:48;7.90;99.90
41720;DHT22;27405;53.316;-6.294;2022-10-16T03:51:14;7.90;99.90
41720;DHT22;27405;53.316;-6.294;2022-10-16T03:53:40;7.90;99.90
41720;DHT22;27405;53.316;-6.294;2022-10-16T03:56:05;7.90;99.90
41720;DHT22;27405;53.316;-6.294;2022-10-16T03:58:31;7.90;99.90
41720;DHT22;27405;53.316;-6.294;2022-10-16T04:00:57;7.80;99.90
41720;DHT22;27405;53.316;-6.294;2022-10-16T04:03:23;7.80;99.90
41720;DHT22;27405;53.316;-6.294;2022-10-16T04:05:49;7.90;99.90
41720;DHT22;27405;53.316;-6.294;2022-10-16T04:08:15;7.90;99.90
41720;DHT22;27405;53.316;-6.294;2022-10-16T04:10:42;7.90;99.90
41720;DHT22;27405;53.316;-6.294;2022-10-16T04:13:09;7.90;99.90
41720;DHT22;27405;53.316;-6.294;2022-10-16T04:15:34;7.90;99.90
41720;DHT22;27405;53.316;-6.294;2022-10-16T04:18:00;8.00;99.90
41720;DHT22;27405;53.316;-6.294;2022-10-16T04:20:26;8.00;99.90
41720;DHT22;27405;53.316;-6.294;2022-10-16T04:22:51;8.00;99.90
41720;DHT22;27405;53.316;-6.294;2022-10-16T04:25:17;8.00;99.90
41720;DHT22;27405;53.316;-6.294;2022-10-16T04:27:43;8.00;99.90
41720;DHT22;27405;53.316;-6.294;2022-10-16T04:30:09;8.00;99.90
41720;DHT22;27405;53.316;-6.294;2022-10-16T04:32:34;8.10;99.90
41720;DHT22;27405;53.316;-6.294;2022-10-16T04:35:00;8.10;99.90
41720;DHT22;27405;53.316;-6.294;2022-10-16T04:37:27;8.10;99.90
41720;DHT22;27405;53.316;-6.294;2022-10-16T04:39:53;8.10;99.90
41720;DHT22;27405;53.316;-6.294;2022-10-16T04:42:20;8.00;99.90
41720;DHT22;27405;53.316;-6.294;2022-10-16T04:44:45;8.00;99.90
41720;DHT22;27405;53.316;-6.294;2022-10-16T04:47:11;8.00;99.90
41720;DHT22;27405;53.316;-6.294;2022-10-16T04:49:37;8.00;99.90
41720;DHT22;27405;53.316;-6.294;2022-10-16T04:52:03;8.00;99.90
41720;DHT22;27405;53.316;-6.294;2022-10-16T04:54:29;8.00;99.90
41720;DHT22;27405;53.316;-6.294;2022-10-16T04:56:54;8.00;99.90
41720;DHT22;27405;53.316;-6.294;2022-10-16T04:59:20;8.00;99.90
41720;DHT22;27405;53.316;-6.294;2022-10-16T05:01:46;7.90;99.90
41720;DHT22;27405;53.316;-6.294;2022-10-16T05:04:12;7.90;99.90
41720;DHT22;27405;53.316;-6.294;2022-10-16T05:06:38;8.00;99.90
41720;DHT22;27405;53.316;-6.294;2022-10-16T05:09:05;8.00;99.90
41720;DHT22;27405;53.316;-6.294;2022-10-16T05:11:31;8.00;99.90
41720;DHT22;27405;53.316;-6.294;2022-10-16T05:13:57;8.00;99.90
41720;DHT22;27405;53.316;-6.294;2022-10-16T05:16:22;8.10;99.90
41720;DHT22;27405;53.316;-6.294;2022-10-16T05:18:48;8.00;99.90
41720;DHT22;27405;53.316;-6.294;2022-10-16T05:21:14;8.10;99.90
41720;DHT22;27405;53.316;-6.294;2022-10-16T05:23:39;8.10;99.90
41720;DHT22;27405;53.316;-6.294;2022-10-16T05:26:05;8.10;99.90
41720;DHT22;27405;53.316;-6.294;2022-10-16T05:28:31;8.20;99.90
41720;DHT22;27405;53.316;-6.294;2022-10-16T05:30:57;8.20;99.90
41720;DHT22;27405;53.316;-6.294;2022-10-16T05:33:25;8.20;99.90
41720;DHT22;27405;53.316;-6.294;2022-10-16T05:35:51;8.20;99.90
41720;DHT22;27405;53.316;-6.294;2022-10-16T05:38:17;8.30;99.90
41720;DHT22;27405;53.316;-6.294;2022-10-16T05:40:43;8.30;99.90
41720;DHT22;27405;53.316;-6.294;2022-10-16T05:43:15;8.30;99.90
41720;DHT22;27405;53.316;-6.294;2022-10-16T05:45:41;8.30;99.90
41720;DHT22;27405;53.316;-6.294;2022-10-16T05:48:06;8.30;99.90
41720;DHT22;27405;53.316;-6.294;2022-10-16T05:50:32;8.20;99.90
41720;DHT22;27405;53.316;-6.294;2022-10-16T05:52:58;8.20;99.90
41720;DHT22;27405;53.316;-6.294;2022-10-16T05:55:24;8.20;99.90
41720;DHT22;27405;53.316;-6.294;2022-10-16T05:57:49;8.10;99.90
41720;DHT22;27405;53.316;-6.294;2022-10-16T06:00:15;8.10;99.90
41720;DHT22;27405;53.316;-6.294;2022-10-16T06:02:41;8.10;99.90
41720;DHT22;27405;53.316;-6.294;2022-10-16T06:05:06;8.10;99.90
41720;DHT22;27405;53.316;-6.294;2022-10-16T06:07:34;8.10;99.90
41720;DHT22;27405;53.316;-6.294;2022-10-16T06:10:01;8.10;99.90
41720;DHT22;27405;53.316;-6.294;2022-10-16T06:12:28;8.20;99.90
41720;DHT22;27405;53.316;-6.294;2022-10-16T06:14:53;8.20;99.90
41720;DHT22;27405;53.316;-6.294;2022-10-16T06:17:19;8.20;99.90
41720;DHT22;27405;53.316;-6.294;2022-10-16T06:19:45;8.20;99.90
41720;DHT22;27405;53.316;-6.294;2022-10-16T06:22:10;8.20;99.90
41720;DHT22;27405;53.316;-6.294;2022-10-16T06:24:36;8.20;99.90
41720;DHT22;27405;53.316;-6.294;2022-10-16T06:27:03;8.20;99.90
41720;DHT22;27405;53.316;-6.294;2022-10-16T06:29:29;8.30;99.90
41720;DHT22;27405;53.316;-6.294;2022-10-16T06:31:55;8.30;99.90
41720;DHT22;27405;53.316;-6.294;2022-10-16T06:34:20;8.20;99.90
41720;DHT22;27405;53.316;-6.294;2022-10-16T06:36:46;8.20;99.90
41720;DHT22;27405;53.316;-6.294;2022-10-16T06:39:11;8.20;99.90
41720;DHT22;27405;53.316;-6.294;2022-10-16T06:41:37;8.20;99.90
41720;DHT22;27405;53.316;-6.294;2022-10-16T06:44:06;8.20;99.90
41720;DHT22;27405;53.316;-6.294;2022-10-16T06:46:33;8.20;99.90
41720;DHT22;27405;53.316;-6.294;2022-10-16T06:48:59;8.20;99.90
41720;DHT22;27405;53.316;-6.294;2022-10-16T06:51:25;8.20;99.90
41720;DHT22;27405;53.316;-6.294;2022-10-16T06:53:52;8.20;99.90
41720;DHT22;27405;53.316;-6.294;2022-10-16T06:56:20;8.20;99.90
41720;DHT22;27405;53.316;-6.294;2022-10-16T06:58:46;8.20;99.90
41720;DHT22;27405;53.316;-6.294;2022-10-16T07:01:13;8.20;99.90
41720;DHT22;27405;53.316;-6.294;2022-10-16T07:03:41;8.20;99.90
41720;DHT22;27405;53.316;-6.294;2022-10-16T07:06:08;8.10;99.90
41720;DHT22;27405;53.316;-6.294;2022-10-16T07:08:36;8.10;99.90
41720;DHT22;27405;53.316;-6.294;2022-10-16T07:11:17;8.00;99.90
41720;DHT22;27405;53.316;-6.294;2022-10-16T07:13:44;7.90;99.90
41720;DHT22;27405;53.316;-6.294;2022-10-16T07:16:13;7.90;99.90
41720;DHT22;27405;53.316;-6.294;2022-10-16T07:18:40;7.80;99.90
41720;DHT22;27405;53.316;-6.294;2022-10-16T07:21:18;7.80;99.90
41720;DHT22;27405;53.316;-6.294;2022-10-16T07:23:44;7.80;99.90
41720;DHT22;27405;53.316;-6.294;2022-10-16T07:26:10;7.80;99.90
41720;DHT22;27405;53.316;-6.294;2022-10-16T07:28:37;7.80;99.90
41720;DHT22;27405;53.316;-6.294;2022-10-16T07:31:04;7.80;99.90
41720;DHT22;27405;53.316;-6.294;2022-10-16T07:33:31;7.80;99.90
41720;DHT22;27405;53.316;-6.294;2022-10-16T07:35:56;7.80;99.90
41720;DHT22;27405;53.316;-6.294;2022-10-16T07:38:22;7.90;99.90
41720;DHT22;27405;53.316;-6.294;2022-10-16T07:40:48;7.90;99.90
41720;DHT22;27405;53.316;-6.294;2022-10-16T07:43:14;8.00;99.90
41720;DHT22;27405;53.316;-6.294;2022-10-16T07:45:49;8.10;99.90
41720;DHT22;27405;53.316;-6.294;2022-10-16T07:48:16;8.10;99.90
41720;DHT22;27405;53.316;-6.294;2022-10-16T07:50:42;8.20;99.90
41720;DHT22;27405;53.316;-6.294;2022-10-16T07:53:08;8.30;99.90
41720;DHT22;27405;53.316;-6.294;2022-10-16T07:55:34;8.30;99.90
41720;DHT22;27405;53.316;-6.294;2022-10-16T07:58:00;8.40;99.90
41720;DHT22;27405;53.316;-6.294;2022-10-16T08:00:25;8.50;99.90
41720;DHT22;27405;53.316;-6.294;2022-10-16T08:02:51;8.50;99.90
41720;DHT22;27405;53.316;-6.294;2022-10-16T08:05:16;8.60;99.90
41720;DHT22;27405;53.316;-6.294;2022-10-16T08:07:42;8.60;99.90
41720;DHT22;27405;53.316;-6.294;2022-10-16T08:10:16;8.70;99.90
41720;DHT22;27405;53.316;-6.294;2022-10-16T08:12:43;8.70;99.90
41720;DHT22;27405;53.316;-6.294;2022-10-16T08:15:09;8.80;99.90
41720;DHT22;27405;53.316;-6.294;2022-10-16T08:17:35;8.80;99.90
41720;DHT22;27405;53.316;-6.294;2022-10-16T08:20:01;8.90;99.90
41720;DHT22;27405;53.316;-6.294;2022-10-16T08:22:27;8.90;99.90
41720;DHT22;27405;53.316;-6.294;2022-10-16T08:24:53;9.00;99.90
41720;DHT22;27405;53.316;-6.294;2022-10-16T08:27:18;9.10;99.90
41720;DHT22;27405;53.316;-6.294;2022-10-16T08:29:44;9.10;99.90
41720;DHT22;27405;53.316;-6.294;2022-10-16T08:32:10;9.20;99.90
41720;DHT22;27405;53.316;-6.294;2022-10-16T08:34:35;9.20;99.90
41720;DHT22;27405;53.316;-6.294;2022-10-16T08:37:01;9.30;99.90
41720;DHT22;27405;53.316;-6.294;2022-10-16T08:39:27;9.30;99.90
41720;DHT22;27405;53.316;-6.294;2022-10-16T08:42:02;9.40;99.90
41720;DHT22;27405;53.316;-6.294;2022-10-16T08:49:35;9.60;99.90
41720;DHT22;27405;53.316;-6.294;2022-10-16T08:52:02;9.60;99.90
41720;DHT22;27405;53.316;-6.294;2022-10-16T08:54:42;9.70;99.90
41720;DHT22;27405;53.316;-6.294;2022-10-16T08:57:17;9.80;99.90
41720;DHT22;27405;53.316;-6.294;2022-10-16T08:59:44;9.90;99.90
41720;DHT22;27405;53.316;-6.294;2022-10-16T09:17:56;10.40;99.90
41720;DHT22;27405;53.316;-6.294;2022-10-16T09:23:25;10.50;99.90
41720;DHT22;27405;53.316;-6.294;2022-10-16T09:25:53;10.50;99.90
41720;DHT22;27405;53.316;-6.294;2022-10-16T09:28:19;10.60;99.90
41720;DHT22;27405;53.316;-6.294;2022-10-16T09:30:46;10.70;99.90
41720;DHT22;27405;53.316;-6.294;2022-10-16T09:33:15;10.70;99.90
41720;DHT22;27405;53.316;-6.294;2022-10-16T09:35:44;10.70;99.90
41720;DHT22;27405;53.316;-6.294;2022-10-16T09:38:25;10.80;99.90
41720;DHT22;27405;53.316;-6.294;2022-10-16T09:40:52;10.80;99.90
41720;DHT22;27405;53.316;-6.294;2022-10-16T09:46:04;11.00;99.90
41720;DHT22;27405;53.316;-6.294;2022-10-16T09:48:38;11.00;99.90
41720;DHT22;27405;53.316;-6.294;2022-10-16T09:51:23;11.10;99.90
41720;DHT22;27405;53.316;-6.294;2022-10-16T09:53:55;11.20;99.90
41720;DHT22;27405;53.316;-6.294;2022-10-16T09:56:26;11.20;99.90
41720;DHT22;27405;53.316;-6.294;2022-10-16T09:58:55;11.30;99.90
41720;DHT22;27405;53.316;-6.294;2022-10-16T10:01:24;11.40;99.90
41720;DHT22;27405;53.316;-6.294;2022-10-16T10:03:56;11.50;99.90
41720;DHT22;27405;53.316;-6.294;2022-10-16T10:06:29;11.50;99.90
41720;DHT22;27405;53.316;-6.294;2022-10-16T10:09:02;11.60;99.90
41720;DHT22;27405;53.316;-6.294;2022-10-16T10:11:48;11.70;99.90
41720;DHT22;27405;53.316;-6.294;2022-10-16T10:14:21;11.70;99.90
41720;DHT22;27405;53.316;-6.294;2022-10-16T10:16:49;11.80;99.90
41720;DHT22;27405;53.316;-6.294;2022-10-16T10:19:17;11.90;99.90
41720;DHT22;27405;53.316;-6.294;2022-10-16T10:21:43;11.90;99.90
41720;DHT22;27405;53.316;-6.294;2022-10-16T10:24:11;11.90;99.90
41720;DHT22;27405;53.316;-6.294;2022-10-16T10:26:38;12.00;99.90
41720;DHT22;27405;53.316;-6.294;2022-10-16T10:29:25;12.10;99.90
41720;DHT22;27405;53.316;-6.294;2022-10-16T10:40:42;12.20;99.90
41720;DHT22;27405;53.316;-6.294;2022-10-16T10:46:04;12.20;99.90
41720;DHT22;27405;53.316;-6.294;2022-10-16T10:51:20;12.30;99.90
41720;DHT22;27405;53.316;-6.294;2022-10-16T10:54:35;12.30;99.90
41720;DHT22;27405;53.316;-6.294;2022-10-16T11:02:34;12.30;99.90
41720;DHT22;27405;53.316;-6.294;2022-10-16T11:08:02;12.30;99.90
41720;DHT22;27405;53.316;-6.294;2022-10-16T11:10:54;12.30;99.90
41720;DHT22;27405;53.316;-6.294;2022-10-16T11:15:58;12.30;99.90
41720;DHT22;27405;53.316;-6.294;2022-10-16T11:18:38;12.30;99.90
41720;DHT22;27405;53.316;-6.294;2022-10-16T11:21:10;12.30;99.90
41720;DHT22;27405;53.316;-6.294;2022-10-16T11:26:24;12.30;99.90
41720;DHT22;27405;53.316;-6.294;2022-10-16T11:28:56;12.30;99.90
41720;DHT22;27405;53.316;-6.294;2022-10-16T11:31:34;12.30;99.90
41720;DHT22;27405;53.316;-6.294;2022-10-16T11:36:47;12.30;99.90
41720;DHT22;27405;53.316;-6.294;2022-10-16T11:39:21;12.30;99.90
41720;DHT22;27405;53.316;-6.294;2022-10-16T11:49:46;12.30;99.90
41720;DHT22;27405;53.316;-6.294;2022-10-16T11:52:17;12.30;99.90
41720;DHT22;27405;53.316;-6.294;2022-10-16T11:54:50;12.40;99.90
41720;DHT22;27405;53.316;-6.294;2022-10-16T11:57:28;12.40;99.90
41720;DHT22;27405;53.316;-6.294;2022-10-16T12:05:22;12.40;99.90
41720;DHT22;27405;53.316;-6.294;2022-10-16T12:07:54;12.40;99.90
41720;DHT22;27405;53.316;-6.294;2022-10-16T12:10:25;12.40;99.90
41720;DHT22;27405;53.316;-6.294;2022-10-16T12:12:51;12.40;99.90
41720;DHT22;27405;53.316;-6.294;2022-10-16T12:15:26;12.40;99.90
41720;DHT22;27405;53.316;-6.294;2022-10-16T12:17:52;12.40;99.90
41720;DHT22;27405;53.316;-6.294;2022-10-16T12:22:56;12.30;99.90
41720;DHT22;27405;53.316;-6.294;2022-10-16T12:25:25;12.30;99.90
41720;DHT22;27405;53.316;-6.294;2022-10-16T12:28:19;12.40;99.90
41720;DHT22;27405;53.316;-6.294;2022-10-16T12:31:00;12.30;99.90
41720;DHT22;27405;53.316;-6.294;2022-10-16T12:33:30;12.40;99.90
41720;DHT22;27405;53.316;-6.294;2022-10-16T12:35:58;12.40;99.90
41720;DHT22;27405;53.316;-6.294;2022-10-16T12:38:25;12.40;99.90
41720;DHT22;27405;53.316;-6.294;2022-10-16T12:41:04;12.30;99.90
41720;DHT22;27405;53.316;-6.294;2022-10-16T12:43:46;12.30;99.90
41720;DHT22;27405;53.316;-6.294;2022-10-16T12:48:41;12.30;99.90
41720;DHT22;27405;53.316;-6.294;2022-10-16T12:51:32;12.20;99.90
41720;DHT22;27405;53.316;-6.294;2022-10-16T12:54:03;12.20;99.90
41720;DHT22;27405;53.316;-6.294;2022-10-16T12:56:50;12.20;99.90
41720;DHT22;27405;53.316;-6.294;2022-10-16T13:10:41;12.00;99.90
41720;DHT22;27405;53.316;-6.294;2022-10-16T13:16:20;11.90;99.90
41720;DHT22;27405;53.316;-6.294;2022-10-16T13:30:34;11.80;99.90
41720;DHT22;27405;53.316;-6.294;2022-10-16T13:32:34;11.70;99.90
41720;DHT22;27405;53.316;-6.294;2022-10-16T13:34:59;11.70;99.90
41720;DHT22;27405;53.316;-6.294;2022-10-16T13:37:26;11.70;99.90
41720;DHT22;27405;53.316;-6.294;2022-10-16T13:40:12;11.70;99.90
41720;DHT22;27405;53.316;-6.294;2022-10-16T13:42:42;11.70;99.90
41720;DHT22;27405;53.316;-6.294;2022-10-16T13:45:18;11.70;99.90
41720;DHT22;27405;53.316;-6.294;2022-10-16T13:47:44;11.60;99.90
41720;DHT22;27405;53.316;-6.294;2022-10-16T13:50:18;11.60;99.90
41720;DHT22;27405;53.316;-6.294;2022-10-16T13:52:44;11.60;99.90
41720;DHT22;27405;53.316;-6.294;2022-10-16T13:57:36;11.60;99.90
41720;DHT22;27405;53.316;-6.294;2022-10-16T14:00:03;11.60;99.90
41720;DHT22;27405;53.316;-6.294;2022-10-16T14:02:37;11.60;99.90
41720;DHT22;27405;53.316;-6.294;2022-10-16T14:05:08;11.60;99.90
41720;DHT22;27405;53.316;-6.294;2022-10-16T14:07:35;11.60;99.90
41720;DHT22;27405;53.316;-6.294;2022-10-16T14:10:18;11.70;99.90
41720;DHT22;27405;53.316;-6.294;2022-10-16T14:12:44;11.60;99.90
41720;DHT22;27405;53.316;-6.294;2022-10-16T14:15:17;11.60;99.90
41720;DHT22;27405;53.316;-6.294;2022-10-16T14:17:47;11.60;99.90
41720;DHT22;27405;53.316;-6.294;2022-10-16T14:20:15;11.60;99.90
41720;DHT22;27405;53.316;-6.294;2022-10-16T14:22:43;11.60;99.90
41720;DHT22;27405;53.316;-6.294;2022-10-16T14:25:20;11.60;99.90
41720;DHT22;27405;53.316;-6.294;2022-10-16T14:28:21;11.60;99.90
41720;DHT22;27405;53.316;-6.294;2022-10-16T14:30:56;11.60;99.90
41720;DHT22;27405;53.316;-6.294;2022-10-16T14:33:33;11.60;99.90
41720;DHT22;27405;53.316;-6.294;2022-10-16T14:38:38;11.60;99.90
41720;DHT22;27405;53.316;-6.294;2022-10-16T14:41:05;11.50;99.90
41720;DHT22;27405;53.316;-6.294;2022-10-16T14:43:42;11.50;99.90
41720;DHT22;27405;53.316;-6.294;2022-10-16T14:46:16;11.50;99.90
41720;DHT22;27405;53.316;-6.294;2022-10-16T14:48:45;11.50;99.90
41720;DHT22;27405;53.316;-6.294;2022-10-16T14:51:15;11.50;99.90
41720;DHT22;27405;53.316;-6.294;2022-10-16T14:53:40;11.50;99.90
41720;DHT22;27405;53.316;-6.294;2022-10-16T14:56:16;11.50;99.90
41720;DHT22;27405;53.316;-6.294;2022-10-16T14:58:42;11.50;99.90
41720;DHT22;27405;53.316;-6.294;2022-10-16T15:01:10;11.50;99.90
41720;DHT22;27405;53.316;-6.294;2022-10-16T15:03:37;11.50;99.90
41720;DHT22;27405;53.316;-6.294;2022-10-16T15:06:03;11.50;99.90
41720;DHT22;27405;53.316;-6.294;2022-10-16T15:08:29;11.50;99.90
41720;DHT22;27405;53.316;-6.294;2022-10-16T15:10:54;11.50;99.90
41720;DHT22;27405;53.316;-6.294;2022-10-16T15:13:20;11.60;99.90
41720;DHT22;27405;53.316;-6.294;2022-10-16T15:15:47;11.60;99.90
41720;DHT22;27405;53.316;-6.294;2022-10-16T15:18:14;11.70;99.90
41720;DHT22;27405;53.316;-6.294;2022-10-16T15:20:45;11.70;99.90
41720;DHT22;27405;53.316;-6.294;2022-10-16T15:23:18;11.70;99.90
41720;DHT22;27405;53.316;-6.294;2022-10-16T15:25:48;11.80;99.90
41720;DHT22;27405;53.316;-6.294;2022-10-16T15:28:15;11.80;99.90
41720;DHT22;27405;53.316;-6.294;2022-10-16T15:30:42;11.80;99.90
41720;DHT22;27405;53.316;-6.294;2022-10-16T15:33:15;11.90;99.90
41720;DHT22;27405;53.316;-6.294;2022-10-16T15:35:42;11.90;99.90
41720;DHT22;27405;53.316;-6.294;2022-10-16T15:38:11;11.90;99.90
41720;DHT22;27405;53.316;-6.294;2022-10-16T15:40:38;11.90;99.90
41720;DHT22;27405;53.316;-6.294;2022-10-16T15:43:04;11.90;99.90
41720;DHT22;27405;53.316;-6.294;2022-10-16T15:45:30;11.90;99.90
41720;DHT22;27405;53.316;-6.294;2022-10-16T15:47:55;11.90;99.90
41720;DHT22;27405;53.316;-6.294;2022-10-16T15:50:21;11.90;99.90
41720;DHT22;27405;53.316;-6.294;2022-10-16T15:52:47;11.90;99.90
41720;DHT22;27405;53.316;-6.294;2022-10-16T15:55:13;11.90;99.90
41720;DHT22;27405;53.316;-6.294;2022-10-16T15:57:40;11.90;99.90
41720;DHT22;27405;53.316;-6.294;2022-10-16T16:00:11;11.80;99.90
41720;DHT22;27405;53.316;-6.294;2022-10-16T16:02:37;11.80;99.90
41720;DHT22;27405;53.316;-6.294;2022-10-16T16:05:03;11.80;99.90
41720;DHT22;27405;53.316;-6.294;2022-10-16T16:07:33;11.80;99.90
41720;DHT22;27405;53.316;-6.294;2022-10-16T16:09:59;11.80;99.90
41720;DHT22;27405;53.316;-6.294;2022-10-16T16:12:25;11.70;99.90
41720;DHT22;27405;53.316;-6.294;2022-10-16T16:14:50;11.60;99.90
41720;DHT22;27405;53.316;-6.294;2022-10-16T16:17:17;11.50;99.90
41720;DHT22;27405;53.316;-6.294;2022-10-16T16:19:43;11.30;99.90
41720;DHT22;27405;53.316;-6.294;2022-10-16T16:22:08;11.30;99.90
41720;DHT22;27405;53.316;-6.294;2022-10-16T16:24:34;11.20;99.90
41720;DHT22;27405;53.316;-6.294;2022-10-16T16:27:00;11.20;99.90
41720;DHT22;27405;53.316;-6.294;2022-10-16T16:29:25;11.10;99.90
41720;DHT22;27405;53.316;-6.294;2022-10-16T16:31:51;11.10;99.90
41720;DHT22;27405;53.316;-6.294;2022-10-16T16:34:23;11.10;99.90
41720;DHT22;27405;53.316;-6.294;2022-10-16T16:36:50;11.00;99.90
41720;DHT22;27405;53.316;-6.294;2022-10-16T16:39:15;11.10;99.90
41720;DHT22;27405;53.316;-6.294;2022-10-16T16:41:41;11.10;99.90
41720;DHT22;27405;53.316;-6.294;2022-10-16T16:44:09;11.10;99.90
41720;DHT22;27405;53.316;-6.294;2022-10-16T16:46:36;11.10;99.90
41720;DHT22;27405;53.316;-6.294;2022-10-16T16:49:02;11.10;99.90
41720;DHT22;27405;53.316;-6.294;2022-10-16T16:51:28;11.00;99.90
41720;DHT22;27405;53.316;-6.294;2022-10-16T16:53:55;11.00;99.90
41720;DHT22;27405;53.316;-6.294;2022-10-16T16:56:22;11.00;99.90
41720;DHT22;27405;53.316;-6.294;2022-10-16T16:58:49;11.00;99.90
41720;DHT22;27405;53.316;-6.294;2022-10-16T17:01:16;11.10;99.90
41720;DHT22;27405;53.316;-6.294;2022-10-16T17:03:43;11.10;99.90
41720;DHT22;27405;53.316;-6.294;2022-10-16T17:06:11;11.10;99.90
41720;DHT22;27405;53.316;-6.294;2022-10-16T17:08:38;11.10;99.90
41720;DHT22;27405;53.316;-6.294;2022-10-16T17:11:04;11.10;99.90
41720;DHT22;27405;53.316;-6.294;2022-10-16T17:13:33;11.10;99.90
41720;DHT22;27405;53.316;-6.294;2022-10-16T17:16:03;11.10;99.90
41720;DHT22;27405;53.316;-6.294;2022-10-16T17:18:29;11.10;99.90
41720;DHT22;27405;53.316;-6.294;2022-10-16T17:20:58;11.10;99.90
41720;DHT22;27405;53.316;-6.294;2022-10-16T17:23:24;11.10;99.90
41720;DHT22;27405;53.316;-6.294;2022-10-16T17:25:50;11.20;99.90
41720;DHT22;27405;53.316;-6.294;2022-10-16T17:28:15;11.10;99.90
41720;DHT22;27405;53.316;-6.294;2022-10-16T17:30:42;11.20;99.90
41720;DHT22;27405;53.316;-6.294;2022-10-16T17:33:09;11.20;99.90
41720;DHT22;27405;53.316;-6.294;2022-10-16T17:35:45;11.20;99.90
41720;DHT22;27405;53.316;-6.294;2022-10-16T17:38:12;11.20;99.90
41720;DHT22;27405;53.316;-6.294;2022-10-16T17:40:39;11.20;99.90
41720;DHT22;27405;53.316;-6.294;2022-10-16T17:43:05;11.20;99.90
41720;DHT22;27405;53.316;-6.294;2022-10-16T17:45:35;11.20;99.90